Terminal Aerodrome Forecast
Issued by NWS

Home | Current Version | Previous Version | Text Only | Print | Product List | Glossary Off
Versions: 1 2 3 4 5 6 7 8 9 10 11 12 13 14 15 16 17 18 19 20 21 22 23 24

497
FTUS43 KIWX 191720
TAFSBN
TAF
KSBN 191720Z 1918/2018 15009KT 2SM -RA BR OVC005 WS020/22050KT
      TEMPO 1918/1920 3/4SM RA BR OVC003
     FM192100 20014KT 1 1/2SM -RA BR VCTS OVC005CB WS020/22050KT=

USA.gov is the U.S. government's official web portal to all federal, state and local government web resources and services.